Blytheville, Arkansas
Current Conditions -  °F | °C
As of 2:53 AM on Wednesday 22 Oct 2014 (Local Time) from KHKA Reporting Station
Clear Clear  
Wind Chill: 47°   Ceiling: Unl
Heat Index: 49°   Visibility: 10mi
Dew Point: 46°   Wind: 6mph
Humidity: 90%   Direction: 50°NE
Pressure: 30.16"   Gusts: NA
Location:  35.93°N, 89.9°W
Report Text: KHKA 220753Z AUTO 05005KT 10SM CLR 09/08 A3016 RMK AO2 SLP213 T00940078
Loading
Personal Weather Stations






























Interactive Weather Map
Tropical Storm Tracking
New forecast layout! Learn more

10-Day Weather Forecast

Advertisements
Track Severe Weather on mobile